x

Portland 12 Nm Southeast Of Portland,me (44007) Wave Buoy

2:50 - Sat 1st Nov 2014 All times are EDT. -4 hours from GMT.

  • Sig Wave height 2.6ft
  • Swell Direction
  • Peak Period 3s
  • Average Period 3s
  • Wind
    22mph, 25mph gusts
  • Sea Temp 53°f
  • Air Temp 45°f
  • Sea Pressure 1013.9mb
  • Portland 12 Nm Southeast Of Portland,me
  • Portland 12 Nm Southeast Of Portland,me

More Historic Weather Station data

Upgrade to MSW Pro to gain access to the past 30 days of data for over 8000 Wavebouys and Weather Stations around the globe.

Join Pro

Comparision Forecast

View Surf forecast
   
sam. 11/01 2:50 2.5ft 3s 3s 22 25 mph 1013.9mb 53f 45f
1:50 2ft 3s 3s 20 25 mph 1014.9mb 53f 46f
12:50 2ft 3s 3s 16 20 mph 1015.7mb 53f 46f
ven. 10/31 11:50 1.6ft 3s 3s 16 18 mph 1016.4mb 53f 47f
10:50 1ft 7s 3s 16 18 mph 1016.6mb 53f 48f
9:50 1ft 8s 4s 11
mph
1017.1mb 53f 49f
8:50 1ft 8s 5s 9 11 mph 1016.7mb 53f 49f
7:50 1ft 8s 5s 9 11 mph 1017mb 53f 49f
6:50 1.3ft 7s 5s 7 9 mph 1016.7mb 53f 49f
5:50 1.3ft 7s 5s 7 9 mph 1016.4mb 53f 49f
4:50 1.3ft 7s 4s 4 7 mph 1016.2mb 53f 49f
3:50 1.6ft 7s 5s 4 7 mph 1016.2mb 53f 49f
2:50 1.6ft 7s 5s 4 7 mph 1016.4mb 53f 49f
1:50 1.3ft 8s 4s 4 7 mph 1016.6mb 53f 48f
12:50 1.3ft 8s 4s 4 7 mph 1017.2mb 53f 48f
11:50 1.3ft 8s 4s 7 11 mph 1017.7mb 53f 48f
10:50 1.3ft 8s 4s 9 11 mph 1017.5mb 53f 48f
9:50 1.6ft 8s 4s 11 13 mph 1017.9mb 53f 48f
8:50 1.6ft 8s 4s 16 18 mph 1017.4mb 53f 47f
7:50 1.6ft 7s 4s 13 16 mph 1017.3mb 53f 47f
6:50 1.6ft 7s 4s 13 16 mph 1016.6mb 53f 47f
5:50 1.3ft 8s 4s 13 18 mph 1016.4mb 53f 47f
4:50 1.3ft 8s 4s 16 18 mph 1016.1mb 53f 47f
3:50 1.3ft 8s 5s 11 13 mph 1016.1mb 53f 47f
2:50 1.3ft 8s 4s 9 13 mph 1016.2mb 53f 47f
1:50 1.3ft 8s 4s 11 13 mph 1016.1mb 53f 47f
12:50 1.3ft 8s 4s 13 16 mph 1016.1mb 53f 47f
jeu. 10/30 11:50 1.3ft 7s 4s 11 13 mph 1015.8mb 53f 47f
10:50 1.3ft 3s 3s 13 16 mph 1015.5mb 53f 48f
9:50 1.6ft 3s 3s 16 18 mph 1015.3mb 53f 49f
8:50 1.6ft 7s 4s 16 20 mph 1014.6mb 53f 50f
7:50 1.3ft 7s 5s 16 18 mph 1014mb 53f 52f
6:50 1.3ft 7s 6s 7 11 mph 1013.6mb 53f 53f
5:50 1.3ft 7s 6s 9 11 mph 1012.9mb 54f 53f
4:50 1.3ft 7s 6s 9 11 mph 1012.4mb 54f 52f
3:50 1.3ft 7s 5s 4 7 mph 1012.1mb 54f 52f
2:50 1.3ft 6s 5s 4 7 mph 1011.9mb 54f 52f
1:50 1.3ft 7s 5s 4 7 mph 1012mb 54f 53f
12:50 1.3ft 6s 5s 7 11 mph 1012.2mb 54f 52f
11:50 1.3ft 6s 4s 9
mph
1012.4mb 53f 51f
10:50 1.3ft 7s 4s 7 9 mph 1012.7mb 53f 48f
9:50 1.3ft 6s 4s 4 7 mph 1012.8mb 53f 47f
8:50 1.3ft 6s 4s 4 7 mph 1012.6mb 53f 47f
7:50 1.6ft 6s 4s 4 7 mph 1012.2mb 53f 47f
6:50 1.6ft 6s 5s 4 7 mph 1011.5mb 53f 47f
5:50 1.6ft 6s 5s 7 9 mph 1011mb 53f 48f
4:50 1.6ft 6s 5s 7 9 mph 1010.3mb 53f 49f
3:50 1.6ft 6s 4s 7 9 mph 1010.3mb 53f 51f
2:50 1.6ft 6s 4s 9 11 mph 1010.3mb 53f 50f
1:50 2ft 6s 4s 13 16 mph 1010mb 53f 52f
12:50 2ft 5s 4s 11 16 mph 1009.6mb 54f 53f
mer. 10/29 11:50 2ft 5s 4s 11 13 mph 1009.2mb 54f 53f
10:50 2ft 6s 4s 13
mph
1009.2mb 54f 54f
9:50 2ft 6s 5s 11 13 mph 1009.5mb 54f 54f
8:50 2ft 5s 5s 11 13 mph 1009.3mb 54f 55f
7:50 2ft 5s 5s 9 11 mph 1008.7mb 54f 57f
6:50 1.6ft 5s 5s 11 13 mph 1008.8mb 54f 58f
5:50 2ft 5s 5s 9 11 mph 1008.2mb 54f 56f
4:50 1.6ft 5s 4s 9
mph
1007.9mb 54f 54f
3:50 1.6ft 5s 5s 9 11 mph 1007.8mb 54f 53f
2:50 1.6ft 5s  -  9 11 mph 1007.8mb 54f 53f
1:50 1.6ft 5s 4s 7
mph
1008.4mb 54f 53f
12:50 1.6ft 5s 4s 7
mph
1008.8mb 54f 52f
11:50 1.6ft 5s 4s 7 9 mph 1009.5mb 53f 52f
10:50 1.6ft 5s 4s 7 9 mph 1010.3mb 53f 52f
9:50 1.6ft 5s 4s 4 7 mph 1010.7mb 53f 51f
8:50 2ft 5s 4s 2 4 mph 1011mb 53f 51f
7:50 2ft 5s 4s 2
mph
1011.2mb 53f 51f
6:50 2ft 5s 4s 4
mph
1011.2mb 53f 51f
5:50 2ft 5s 4s 2 4 mph 1011.2mb 53f 51f
4:50 2ft 5s 4s 7 9 mph 1011.7mb 53f 51f
3:50 1.6ft 5s 4s 7
mph
1011.4mb 53f 51f
2:50 2ft 5s 4s 7 9 mph 1012.1mb 54f 51f
1:50 2ft 5s 4s 9 11 mph 1012.6mb 54f 52f
12:50 2ft 5s 4s 9 11 mph 1013.2mb 53f 53f
mar. 10/28 11:50 2ft 4s 4s 2
mph
1013.5mb 53f 55f
10:50 2ft 4s 4s 4 7 mph 1014.4mb 53f 54f
9:50 2ft 4s 4s 7 9 mph 1014.8mb 53f 54f
8:50 1.6ft 4s 4s 4 7 mph 1015.2mb 53f 55f
7:50 1.6ft 4s 4s 9
mph
1015.3mb 53f 54f
6:50 1.3ft 4s 4s 7 9 mph 1015.8mb 54f 54f
5:50 1.3ft 3s 3s 9 11 mph 1016mb 54f 54f
4:50 1ft 3s 3s 9
mph
1016.5mb 54f 54f
3:50 1ft 7s 3s 11 13 mph 1016.1mb 54f 54f
2:50 1ft 7s 3s 11 13 mph 1016.7mb 54f 53f
1:50 0.7ft  -  4s 9 11 mph 1017.2mb 53f 53f
12:50 0.7ft  -  4s 9 11 mph 1017.5mb 53f 53f
11:50 0.7ft  -  4s 9 11 mph 1018.2mb 53f 53f
10:50 0.7ft  -  4s 9 11 mph 1018.8mb 53f 53f
9:50 0.7ft  -  4s 7 9 mph 1018.9mb 53f 52f
8:50 0.7ft  -  4s 4
mph
1018.4mb 53f 51f
7:50 0.7ft  -  4s  -  2 mph 1018.2mb 53f 50f